Time;durP1;ratioP1;P1;durP2;ratioP2;P2;SDS_P1;SDS_P2;PMS_P1;PMS_P2;Temp;Humidity;BMP_temperature;BMP_pressure;BME280_temperature;BME280_humidity;BME280_pressure;Samples;Min_cycle;Max_cycle;Signal;HPM_P1;HPM_P2
2023/10/01 00:02:04;;;;;;;8.23;1.90;;;;;;;12.89;56.03;98744.91;10485028;28;20106;-71
2023/10/01 00:07:26;;;;;;;6.80;2.00;;;;;;;12.90;56.09;98744.31;10471900;28;20047;-71
2023/10/01 00:12:53;;;;;;;9.43;2.20;;;;;;;12.89;55.83;98734.44;10484473;28;20045;-71
2023/10/01 00:18:14;;;;;;;10.82;2.20;;;;;;;12.90;56.05;98738.72;10471985;28;20494;-72
2023/10/01 00:23:35;;;;;;;7.72;2.20;;;;;;;12.86;56.25;98738.44;10499321;28;20098;-71
2023/10/01 00:28:56;;;;;;;9.02;2.00;;;;;;;12.85;56.24;98733.44;10484943;28;20072;-71
2023/10/01 00:34:18;;;;;;;11.82;2.28;;;;;;;12.86;56.39;98724.44;10470753;28;20041;-71
2023/10/01 00:39:39;;;;;;;8.25;1.88;;;;;;;12.82;56.50;98729.72;10499351;28;20048;-71
2023/10/01 00:45:04;;;;;;;7.38;2.30;;;;;;;12.75;56.76;98719.41;10484124;28;20049;-71
2023/10/01 00:50:25;;;;;;;6.47;1.85;;;;;;;12.65;56.90;98718.66;10470278;28;20474;-71
2023/10/01 00:55:47;;;;;;;7.75;2.00;;;;;;;12.62;57.04;98717.00;10455943;28;20047;-71
2023/10/01 01:01:08;;;;;;;8.32;1.98;;;;;;;12.61;57.09;98710.66;10456102;28;20044;-70
2023/10/01 01:06:36;;;;;;;6.63;1.63;;;;;;;12.57;56.78;98699.16;10469439;28;20048;-71
2023/10/01 01:11:57;;;;;;;9.32;2.15;;;;;;;12.56;57.12;98702.56;10484135;28;20056;-71
2023/10/01 01:17:18;;;;;;;8.40;2.10;;;;;;;12.58;56.94;98711.09;10469127;28;20071;-71
2023/10/01 01:22:48;;;;;;;8.77;1.77;;;;;;;12.55;56.97;98698.28;10468375;28;20071;-71
2023/10/01 01:28:12;;;;;;;9.95;2.03;;;;;;;12.61;57.03;98684.72;10477748;28;20076;-71
2023/10/01 01:33:40;;;;;;;6.88;1.45;;;;;;;12.74;56.87;98689.91;10478549;28;20072;-71
2023/10/01 01:39:35;;;;;;;7.63;2.08;;;;;;;12.74;56.95;98677.94;10492326;28;20048;-71
2023/10/01 01:50:41;;;;;;;5.28;1.65;;;;;;;12.62;57.29;98683.38;10494203;28;20046;-72
2023/10/01 01:56:08;;;;;;;5.68;1.85;;;;;;;12.65;57.32;98681.50;10491013;28;20048;-71
2023/10/01 02:01:35;;;;;;;7.90;1.65;;;;;;;12.64;57.04;98675.13;10476858;28;20101;-71
2023/10/01 02:06:57;;;;;;;3.88;1.58;;;;;;;12.51;57.68;98667.91;10505035;28;20064;-71
2023/10/01 02:12:23;;;;;;;6.93;1.98;;;;;;;12.51;58.03;98672.75;10489775;28;20048;-72
2023/10/01 02:17:44;;;;;;;4.32;1.40;;;;;;;12.53;57.69;98678.50;10490175;28;20504;-71
2023/10/01 02:23:05;;;;;;;6.68;1.58;;;;;;;12.64;58.55;98658.31;10475514;28;20485;-71
2023/10/01 02:28:26;;;;;;;6.22;2.05;;;;;;;12.68;57.97;98658.63;10475664;28;20067;-70
2023/10/01 02:33:56;;;;;;;5.60;1.50;;;;;;;12.78;58.17;98662.19;10483714;28;20126;-71
2023/10/01 02:39:24;;;;;;;5.80;1.55;;;;;;;12.80;58.19;98656.00;10489967;28;20047;-72
2023/10/01 02:44:47;;;;;;;6.15;1.92;;;;;;;12.64;58.25;98646.38;10476617;28;20045;-71
2023/10/01 02:50:15;;;;;;;4.87;1.73;;;;;;;12.51;58.44;98650.34;10489465;28;20068;-71
2023/10/01 02:55:44;;;;;;;4.70;1.55;;;;;;;12.52;58.76;98649.03;10475177;28;20285;-70
2023/10/01 03:01:08;;;;;;;7.72;1.75;;;;;;;12.54;58.94;98665.97;10489502;28;20044;-72
2023/10/01 03:06:33;;;;;;;4.18;1.88;;;;;;;12.52;59.13;98660.22;10488394;28;20493;-71
2023/10/01 03:12:23;;;;;;;4.97;2.15;;;;;;;12.47;59.34;98661.28;10488102;28;20496;-71
2023/10/01 03:17:39;;;;;;;8.23;2.25;;;;;;;12.38;59.59;98664.78;10487476;28;20129;-71
2023/10/01 03:23:01;;;;;;;6.78;2.40;;;;;;;12.29;59.96;98663.44;10488128;28;20047;-71
2023/10/01 03:28:26;;;;;;;7.18;2.92;;;;;;;12.24;60.31;98650.44;10487650;28;20383;-71
2023/10/01 03:33:53;;;;;;;6.47;2.60;;;;;;;12.10;60.92;98647.31;10465118;28;20044;-74
2023/10/01 03:39:25;;;;;;;7.43;2.10;;;;;;;11.97;61.22;98647.72;10513247;28;20045;-77
2023/10/01 03:50:25;;;;;;;6.32;3.05;;;;;;;11.77;62.29;98632.88;10476928;28;20045;-71
2023/10/01 03:55:46;;;;;;;6.75;3.00;;;;;;;11.68;61.74;98647.59;10472653;28;20041;-71
2023/10/01 04:01:26;;;;;;;7.22;3.20;;;;;;;11.58;62.20;98649.56;10471990;28;20055;-71
2023/10/01 04:06:47;;;;;;;10.18;4.03;;;;;;;11.49;62.34;98639.84;10500257;28;20097;-72
2023/10/01 04:12:29;;;;;;;8.77;3.20;;;;;;;11.42;62.96;98660.25;10471890;28;20090;-71
2023/10/01 04:18:18;;;;;;;6.10;3.28;;;;;;;11.43;62.61;98667.31;10488347;28;20059;-71
2023/10/01 04:23:36;;;;;;;5.63;3.22;;;;;;;11.51;63.60;98679.13;10487627;28;20047;-71
2023/10/01 04:28:59;;;;;;;6.75;3.70;;;;;;;11.66;64.13;98647.41;10484951;28;20045;-71
2023/10/01 04:34:23;;;;;;;7.03;3.47;;;;;;;11.79;64.33;98651.91;10471250;28;20128;-71
2023/10/01 04:39:46;;;;;;;6.70;3.10;;;;;;;11.89;63.94;98659.03;10485648;28;20442;-71
2023/10/01 04:45:22;;;;;;;7.03;3.40;;;;;;;11.97;63.68;98665.25;10484373;28;20153;-71
2023/10/01 04:50:46;;;;;;;7.60;3.88;;;;;;;11.96;63.47;98649.75;10486264;28;20045;-71
2023/10/01 04:56:10;;;;;;;7.25;3.63;;;;;;;12.05;64.12;98639.94;10498623;28;20044;-71
2023/10/01 05:01:32;;;;;;;11.40;3.70;;;;;;;12.13;64.30;98660.13;10497622;28;20045;-71
2023/10/01 05:07:10;;;;;;;6.07;2.90;;;;;;;12.20;64.79;98670.47;10469803;28;20426;-71
2023/10/01 05:12:32;;;;;;;7.50;3.45;;;;;;;12.26;64.81;98673.00;10474010;28;20040;-71
2023/10/01 05:17:55;;;;;;;6.80;3.20;;;;;;;12.37;65.63;98682.91;10482869;28;20048;-72
2023/10/01 05:23:17;;;;;;;6.13;3.30;;;;;;;12.54;65.71;98696.78;10455955;28;20390;-72
2023/10/01 05:28:42;;;;;;;6.80;3.15;;;;;;;12.55;66.12;98715.81;10469002;28;20046;-71
2023/10/01 05:34:05;;;;;;;6.20;2.90;;;;;;;12.83;66.21;98724.84;10469730;28;20048;-71
2023/10/01 05:39:33;;;;;;;;;;;;;;;13.02;65.99;98721.31;10497975;28;20045;-71
2023/10/01 05:44:56;;;;;;;6.60;3.00;;;;;;;13.11;65.89;98712.19;10497283;28;19952;-70
2023/10/01 05:50:18;;;;;;;4.55;2.67;;;;;;;13.19;65.85;98698.78;10468873;28;20044;-71
2023/10/01 05:55:39;;;;;;;7.75;3.95;;;;;;;13.15;65.00;98704.09;10468587;28;20072;-71
2023/10/01 06:01:06;;;;;;;8.15;3.63;;;;;;;12.97;65.13;98683.13;10482340;28;20482;-71
2023/10/01 06:06:27;;;;;;;8.57;3.47;;;;;;;13.10;65.34;98677.06;10469726;28;20115;-72
2023/10/01 06:12:03;;;;;;;8.82;4.20;;;;;;;13.01;64.75;98675.00;10470944;28;20471;-71
2023/10/01 06:17:28;;;;;;;5.40;3.30;;;;;;;13.04;65.33;98691.41;10491508;28;20075;-71
2023/10/01 06:22:50;;;;;;;8.07;4.10;;;;;;;12.97;64.96;98694.34;10489843;28;20064;-71
2023/10/01 06:28:11;;;;;;;7.55;4.05;;;;;;;13.24;65.35;98706.19;10503811;28;20071;-71
2023/10/01 06:33:35;;;;;;;7.38;4.30;;;;;;;13.86;65.08;98717.56;10474889;28;20063;-71
2023/10/01 06:38:59;;;;;;;7.60;3.60;;;;;;;14.71;63.94;98713.53;10503297;28;20048;-71
2023/10/01 06:44:21;;;;;;;7.13;3.90;;;;;;;15.48;63.11;98721.38;10488733;28;20432;-71
2023/10/01 06:49:57;;;;;;;5.55;3.40;;;;;;;15.60;61.76;98727.78;10488292;28;20064;-72
2023/10/01 06:55:28;;;;;;;6.45;3.40;;;;;;;15.33;61.85;98716.16;10463922;28;20040;-71
2023/10/01 07:00:50;;;;;;;7.30;3.45;;;;;;;15.34;62.26;98724.00;10489298;28;20044;-72
2023/10/01 07:06:11;;;;;;;5.97;3.15;;;;;;;15.56;61.82;98716.25;10459339;28;20060;-72
2023/10/01 07:11:33;;;;;;;5.78;3.25;;;;;;;15.80;61.23;98717.06;10473610;28;20048;-72
2023/10/01 07:16:54;;;;;;;8.48;3.53;;;;;;;16.06;61.12;98725.69;10502256;28;20482;-72
2023/10/01 07:22:15;;;;;;;6.60;3.30;;;;;;;17.64;60.71;98725.75;10486761;28;20522;-72
2023/10/01 07:27:36;;;;;;;5.03;2.70;;;;;;;18.16;56.20;98730.03;10501733;28;20120;-72
2023/10/01 07:32:58;;;;;;;6.05;2.80;;;;;;;18.05;56.38;98730.81;10501365;28;20045;-72
2023/10/01 07:38:19;;;;;;;5.05;2.90;;;;;;;18.16;55.75;98730.03;10459231;28;20040;-72
2023/10/01 07:43:40;;;;;;;5.97;2.90;;;;;;;17.76;54.87;98728.53;10472265;28;20505;-71
2023/10/01 07:49:01;;;;;;;5.22;2.67;;;;;;;17.21;54.89;98739.56;10485909;28;20068;-72
2023/10/01 07:54:23;;;;;;;5.80;2.67;;;;;;;17.49;55.27;98737.63;10485606;28;20480;-72
2023/10/01 07:59:46;;;;;;;7.07;3.58;;;;;;;17.93;54.54;98742.19;10484722;28;20116;-72
2023/10/01 08:05:08;;;;;;;7.18;3.33;;;;;;;18.16;53.55;98730.75;10471112;28;20502;-72
2023/10/01 08:10:29;;;;;;;7.07;3.30;;;;;;;18.66;52.73;98734.78;10485429;28;20068;-72
2023/10/01 08:15:59;;;;;;;7.05;3.47;;;;;;;19.23;51.61;98719.94;10470615;28;20102;-72
2023/10/01 08:21:20;;;;;;;7.78;4.30;;;;;;;20.47;49.71;98717.25;10472984;28;20063;-73
2023/10/01 08:26:43;;;;;;;6.07;2.90;;;;;;;21.27;48.72;98719.25;10484277;28;20507;-72
2023/10/01 08:32:08;;;;;;;8.10;3.25;;;;;;;22.00;47.56;98724.22;10499380;28;20119;-72
2023/10/01 08:37:31;;;;;;;8.82;3.90;;;;;;;24.92;44.37;98720.84;10499189;28;20115;-71
2023/10/01 08:42:52;;;;;;;7.22;3.95;;;;;;;28.84;36.36;98711.59;10498707;28;20124;-73
2023/10/01 08:48:17;;;;;;;8.15;3.72;;;;;;;30.71;32.50;98704.97;10483139;28;20044;-72
2023/10/01 08:53:42;;;;;;;6.50;3.38;;;;;;;36.44;27.53;98697.63;10463082;28;20457;-73
2023/10/01 08:59:23;;;;;;;6.45;2.88;;;;;;;39.79;22.41;98701.41;10497954;28;20048;-75
2023/10/01 09:04:47;;;;;;;4.32;3.13;;;;;;;46.19;16.75;98700.56;10486122;28;20080;-77
2023/10/01 09:10:09;;;;;;;4.03;2.85;;;;;;;47.12;13.81;98693.88;10470094;28;20045;-77
2023/10/01 09:15:38;;;;;;;3.90;2.60;;;;;;;49.94;11.50;98686.84;10468851;28;20102;-77
2023/10/01 09:21:08;;;;;;;3.65;2.47;;;;;;;52.53;9.53;98674.03;10483810;28;20040;-77
2023/10/01 09:27:08;;;;;;;5.18;2.50;;;;;;;53.66;8.30;98668.75;10497559;28;20044;-76
2023/10/01 09:32:19;;;;;;;3.17;2.33;;;;;;;53.65;7.93;98678.59;10497693;28;20044;-76
2023/10/01 09:37:52;;;;;;;3.10;2.20;;;;;;;51.50;7.27;98669.66;10483101;28;20437;-75
2023/10/01 09:43:18;;;;;;;3.85;2.05;;;;;;;48.71;8.34;98671.69;10497112;28;20064;-76
2023/10/01 09:48:48;;;;;;;3.58;1.77;;;;;;;51.24;7.72;98669.59;10489422;28;20376;-76
2023/10/01 09:54:11;;;;;;;2.65;1.92;;;;;;;51.80;6.74;98669.28;10478986;28;20474;-76
2023/10/01 09:59:39;;;;;;;2.53;1.90;;;;;;;51.76;6.62;98673.34;10476572;28;20116;-76
2023/10/01 10:05:00;;;;;;;3.70;2.08;;;;;;;52.70;5.87;98671.00;10491113;28;20494;-75
2023/10/01 10:10:24;;;;;;;4.47;2.38;;;;;;;51.05;6.09;98660.81;10489636;28;20068;-76
2023/10/01 10:16:02;;;;;;;2.85;2.17;;;;;;;50.59;6.14;98669.78;10476482;28;20068;-76
2023/10/01 10:21:36;;;;;;;4.05;2.50;;;;;;;49.51;6.62;98662.75;10491104;28;20064;-76
2023/10/01 10:26:58;;;;;;;3.42;2.28;;;;;;;48.58;7.30;98664.53;10504015;28;20063;-74
2023/10/01 10:32:24;;;;;;;3.53;2.10;;;;;;;50.03;6.88;98657.22;10488867;28;20108;-76
2023/10/01 10:37:52;;;;;;;2.90;2.00;;;;;;;50.76;5.91;98657.25;10503509;28;20098;-76
2023/10/01 10:43:16;;;;;;;2.45;1.67;;;;;;;50.31;6.20;98649.03;10489507;28;20052;-75
2023/10/01 10:48:47;;;;;;;;;;;;;;;50.72;5.30;98657.56;10488948;28;20445;-76
2023/10/01 10:54:08;;;;;;;3.03;1.60;;;;;;;51.28;5.02;98638.84;10502834;28;19955;-76
2023/10/01 10:59:29;;;;;;;2.05;1.30;;;;;;;50.98;5.04;98642.81;10487051;28;20040;-76
2023/10/01 11:04:49;;;;;;;3.65;1.50;;;;;;;49.75;5.52;98636.44;10487479;28;20056;-76
2023/10/01 11:10:10;;;;;;;1.80;1.15;;;;;;;47.31;5.68;98634.97;10487006;28;20457;-75
2023/10/01 11:15:35;;;;;;;2.13;1.17;;;;;;;46.85;6.13;98621.06;10502395;28;20124;-74
2023/10/01 11:21:01;;;;;;;2.70;1.38;;;;;;;49.76;5.29;98620.75;10502286;28;20386;-74
2023/10/01 11:26:29;;;;;;;;;;;;;;;50.68;5.01;98616.34;10501977;28;20049;-76
2023/10/01 11:31:51;;;;;;;2.08;1.27;;;;;;;50.35;4.58;98630.16;10488037;28;19920;-76
2023/10/01 11:37:18;;;;;;;2.78;1.58;;;;;;;45.38;5.47;98617.78;10501697;28;20119;-75
2023/10/01 11:42:39;;;;;;;2.08;1.45;;;;;;;41.65;7.62;98598.94;10486181;28;20064;-75
2023/10/01 11:48:07;;;;;;;3.53;1.50;;;;;;;39.50;8.54;98614.75;10500535;28;20106;-75
2023/10/01 11:53:30;;;;;;;3.65;1.75;;;;;;;37.65;9.81;98605.97;10486843;28;20083;-75
2023/10/01 11:58:52;;;;;;;3.10;1.67;;;;;;;37.39;10.07;98597.94;10500421;28;20083;-75
2023/10/01 12:10:04;;;;;;;2.35;1.55;;;;;;;35.05;12.28;98597.19;10476015;28;20131;-75
2023/10/01 12:15:33;;;;;;;4.15;1.92;;;;;;;33.53;13.17;98595.59;10471926;28;20044;-75
2023/10/01 12:20:56;;;;;;;3.50;1.20;;;;;;;32.92;13.95;98595.47;10467293;28;20060;-74
2023/10/01 12:31:40;;;;;;;;;;;;;;;32.34;14.99;98583.56;10484626;28;20040;-74
2023/10/01 12:37:07;;;;;;;4.13;1.27;;;;;;;31.41;15.43;98583.91;10484035;28;19973;-74
2023/10/01 12:42:29;;;;;;;3.50;1.67;;;;;;;31.51;15.61;98569.47;10484596;28;20034;-74
2023/10/01 12:47:53;;;;;;;3.28;1.40;;;;;;;30.71;16.38;98566.69;10498298;28;20441;-74
2023/10/01 12:53:20;;;;;;;3.72;1.60;;;;;;;29.55;17.41;98549.06;10484209;28;20040;-74
2023/10/01 12:58:53;;;;;;;2.72;1.67;;;;;;;28.98;18.29;98545.84;10471218;28;20410;-71
2023/10/01 13:04:25;;;;;;;4.70;2.80;;;;;;;28.23;19.44;98551.63;10472671;28;20447;-71
2023/10/01 13:15:17;;;;;;;2.72;1.30;;;;;;;30.40;17.89;98528.47;10498097;28;20041;-74
2023/10/01 13:20:48;;;;;;;3.22;1.33;;;;;;;29.57;16.95;98526.06;10484035;28;20045;-71
2023/10/01 13:26:24;;;;;;;2.35;1.38;;;;;;;28.03;17.94;98533.47;10497531;28;20052;-71
2023/10/01 13:31:51;;;;;;;4.45;1.42;;;;;;;27.40;18.80;98516.19;10484190;28;20048;-71
2023/10/01 13:37:26;;;;;;;2.85;1.30;;;;;;;27.22;18.86;98513.84;10483348;28;20104;-70
2023/10/01 14:11:16;;;;;;;4.32;1.58;;;;;;;25.58;22.29;98480.97;10484154;28;20048;-70
2023/10/01 14:16:38;;;;;;;3.45;1.67;;;;;;;25.34;22.94;98486.91;10469044;28;20090;-70
2023/10/01 14:22:00;;;;;;;3.55;1.40;;;;;;;25.19;23.60;98488.03;10468097;28;20379;-70
2023/10/01 14:27:24;;;;;;;4.47;1.77;;;;;;;25.08;24.00;98483.50;10496291;28;20055;-70
2023/10/01 14:32:45;;;;;;;2.75;1.08;;;;;;;25.10;23.90;98475.00;10499670;28;20040;-71
2023/10/01 14:38:06;;;;;;;2.75;1.23;;;;;;;25.08;23.87;98472.06;10488419;28;20052;-70
2023/10/01 14:43:27;;;;;;;3.50;1.55;;;;;;;25.12;23.91;98472.16;10503237;28;20043;-71
2023/10/01 14:48:48;;;;;;;4.00;1.77;;;;;;;24.90;23.92;98474.50;10488244;28;20166;-70
2023/10/01 14:54:16;;;;;;;3.45;1.48;;;;;;;25.09;24.10;98462.84;10487895;28;20433;-71
2023/10/01 14:59:37;;;;;;;5.72;1.60;;;;;;;25.16;23.55;98460.81;10502902;28;20482;-71
2023/10/01 15:05:07;;;;;;;3.38;1.20;;;;;;;25.13;24.02;98455.75;10459711;28;20061;-70
2023/10/01 15:10:28;;;;;;;4.10;1.40;;;;;;;25.12;23.77;98452.19;10459816;28;20399;-71
2023/10/01 15:15:49;;;;;;;3.45;1.67;;;;;;;24.88;23.20;98449.47;10460410;28;20037;-71
2023/10/01 15:21:31;;;;;;;2.88;1.33;;;;;;;24.59;23.52;98453.81;10451322;28;20041;-70
2023/10/01 15:26:58;;;;;;;3.42;1.50;;;;;;;24.42;23.26;98458.44;10459239;28;20041;-70
2023/10/01 15:32:19;;;;;;;3.63;1.52;;;;;;;24.32;22.89;98460.28;10459033;28;20483;-71
2023/10/01 15:37:41;;;;;;;7.88;1.73;;;;;;;24.15;22.52;98462.72;10445371;28;20041;-71
2023/10/01 15:43:02;;;;;;;4.03;1.90;;;;;;;23.97;22.92;98463.00;10444617;28;20469;-70
2023/10/01 15:48:23;;;;;;;3.13;1.55;;;;;;;23.89;22.80;98456.34;10459337;28;20473;-70
2023/10/01 15:53:43;;;;;;;2.78;1.50;;;;;;;23.74;23.04;98457.34;10458250;28;20052;-70
2023/10/01 15:59:10;;;;;;;4.20;1.52;;;;;;;23.55;23.17;98464.69;10458733;28;20130;-71
2023/10/01 16:04:44;;;;;;;4.32;1.95;;;;;;;23.36;23.08;98467.00;10474065;28;20052;-70
2023/10/01 16:10:11;;;;;;;4.40;1.70;;;;;;;23.12;23.46;98466.28;10499714;28;20072;-70
2023/10/01 16:15:32;;;;;;;5.35;1.60;;;;;;;22.87;23.64;98467.69;10485410;28;20044;-70
2023/10/01 16:20:54;;;;;;;4.53;1.60;;;;;;;22.55;24.00;98465.25;10499512;28;20442;-70
2023/10/01 16:26:15;;;;;;;4.40;1.77;;;;;;;22.27;24.37;98470.03;10470336;28;20120;-71
2023/10/01 16:31:35;;;;;;;4.10;1.70;;;;;;;22.01;24.88;98472.72;10470176;28;20576;-70
2023/10/01 16:36:56;;;;;;;7.13;1.80;;;;;;;21.75;25.29;98469.69;10498635;28;20132;-70
2023/10/01 16:42:18;;;;;;;7.03;1.80;;;;;;;21.62;26.15;98473.50;10498527;28;20470;-71
2023/10/01 16:47:48;;;;;;;4.53;1.73;;;;;;;21.42;26.48;98479.91;10483351;28;20115;-70
2023/10/01 16:53:09;;;;;;;5.40;1.50;;;;;;;21.15;26.84;98483.09;10469483;28;20052;-70
2023/10/01 16:58:33;;;;;;;4.35;1.65;;;;;;;20.89;26.95;98488.50;10455423;28;20102;-70
2023/10/01 17:04:31;;;;;;;10.70;1.83;;;;;;;20.71;28.07;98484.94;10470662;28;20063;-70
2023/10/01 17:09:58;;;;;;;5.63;2.30;;;;;;;20.62;27.97;98483.91;10482856;28;20099;-70
2023/10/01 17:15:42;;;;;;;5.10;1.80;;;;;;;20.51;29.10;98487.72;10497838;28;20044;-70
2023/10/01 17:21:12;;;;;;;4.97;2.25;;;;;;;20.45;28.79;98495.97;10483459;28;20182;-70
2023/10/01 17:26:48;;;;;;;3.80;1.60;;;;;;;20.49;29.16;98498.97;10483805;28;20040;-70
2023/10/01 17:32:12;;;;;;;7.18;1.85;;;;;;;20.51;29.34;98494.09;10484167;28;20048;-69
2023/10/01 17:37:33;;;;;;;9.77;2.03;;;;;;;20.49;29.61;98493.31;10468372;28;20535;-69
2023/10/01 17:42:57;;;;;;;7.10;2.92;;;;;;;20.49;30.21;98498.97;10497701;28;20115;-70
2023/10/01 17:48:18;;;;;;;8.13;3.20;;;;;;;20.42;30.25;98497.22;10482183;28;20070;-71
2023/10/01 17:53:39;;;;;;;5.70;2.55;;;;;;;20.21;30.47;98507.00;10467653;28;20040;-70
2023/10/01 17:58:59;;;;;;;7.85;3.53;;;;;;;20.06;30.91;98521.94;10468664;28;20045;-69
2023/10/01 18:04:22;;;;;;;8.15;3.28;;;;;;;20.03;31.33;98521.13;10496799;28;20076;-70
2023/10/01 18:09:51;;;;;;;9.57;3.70;;;;;;;20.00;31.53;98531.66;10474673;28;20060;-70
2023/10/01 18:15:19;;;;;;;9.75;3.80;;;;;;;20.00;31.85;98537.34;10478119;28;20494;-70
2023/10/01 18:20:41;;;;;;;6.80;3.03;;;;;;;20.09;31.82;98535.56;10490587;28;20051;-70
2023/10/01 18:26:03;;;;;;;6.50;2.90;;;;;;;20.16;31.91;98537.28;10489353;28;20041;-69
2023/10/01 18:31:25;;;;;;;6.80;2.97;;;;;;;20.10;31.83;98528.53;10488864;28;20110;-70
2023/10/01 18:36:47;;;;;;;5.93;2.90;;;;;;;20.00;32.02;98526.00;10475187;28;20166;-70
2023/10/01 18:42:08;;;;;;;5.75;2.70;;;;;;;19.82;32.11;98533.72;10488368;28;20747;-70
2023/10/01 18:47:29;;;;;;;7.00;2.92;;;;;;;19.65;32.72;98535.09;10474644;28;20064;-70
2023/10/01 18:52:51;;;;;;;6.28;3.10;;;;;;;19.54;32.97;98532.41;10474059;28;20055;-70
2023/10/01 18:58:17;;;;;;;7.10;3.45;;;;;;;19.46;33.52;98535.63;10487635;28;20463;-70
2023/10/01 19:03:39;;;;;;;7.30;3.15;;;;;;;19.32;33.79;98534.97;10502690;28;20124;-70
2023/10/01 19:09:00;;;;;;;9.80;3.72;;;;;;;19.13;34.45;98542.63;10502111;28;20040;-70
2023/10/01 19:14:21;;;;;;;7.03;3.38;;;;;;;18.94;34.95;98539.59;10502288;28;20032;-70
2023/10/01 19:19:43;;;;;;;10.70;3.40;;;;;;;18.74;35.68;98548.56;10486779;28;20048;-70
2023/10/01 19:25:06;;;;;;;7.05;3.00;;;;;;;18.58;36.39;98559.78;10472874;28;20055;-70
2023/10/01 19:30:26;;;;;;;6.43;2.97;;;;;;;18.44;37.04;98549.88;10487058;28;20117;-70
2023/10/01 19:35:51;;;;;;;6.60;3.47;;;;;;;18.36;37.43;98564.34;10486421;28;20045;-70
2023/10/01 19:41:17;;;;;;;6.28;3.03;;;;;;;18.25;38.19;98553.91;10501794;28;20131;-70
2023/10/01 19:46:38;;;;;;;6.95;2.92;;;;;;;18.13;38.46;98559.63;10459045;28;20068;-72
2023/10/01 19:51:59;;;;;;;7.45;2.95;;;;;;;18.02;38.73;98563.31;10471729;28;20037;-72
2023/10/01 19:57:20;;;;;;;6.72;2.85;;;;;;;17.91;39.26;98553.59;10458021;28;20120;-73
2023/10/01 20:02:44;;;;;;;7.00;3.28;;;;;;;17.85;39.48;98555.34;10485439;28;20382;-73
2023/10/01 20:08:07;;;;;;;6.43;3.22;;;;;;;17.79;40.29;98550.16;10499787;28;20045;-70
2023/10/01 20:13:30;;;;;;;8.33;3.30;;;;;;;17.71;40.66;98552.53;10471959;28;20115;-72
2023/10/01 20:18:54;;;;;;;11.07;3.37;;;;;;;17.73;41.01;98549.81;10471416;28;20076;-72
2023/10/01 20:24:18;;;;;;;7.90;3.30;;;;;;;17.66;40.96;98557.22;10499553;28;20506;-71
2023/10/01 20:29:41;;;;;;;7.10;3.55;;;;;;;17.57;41.77;98549.69;10470858;28;20079;-71
2023/10/01 20:35:02;;;;;;;6.32;2.95;;;;;;;17.57;42.29;98558.16;10470349;28;20040;-71
2023/10/01 20:40:23;;;;;;;8.95;3.67;;;;;;;17.54;42.47;98538.91;10469827;28;20067;-72
2023/10/01 20:45:44;;;;;;;8.77;3.78;;;;;;;17.51;42.78;98555.00;10483772;28;20467;-72
2023/10/01 20:56:52;;;;;;;7.60;3.85;;;;;;;17.46;42.76;98556.13;10486047;28;20115;-72
2023/10/01 21:02:13;;;;;;;8.00;3.63;;;;;;;17.43;43.57;98552.47;10469445;28;20099;-72
2023/10/01 21:07:44;;;;;;;8.43;3.65;;;;;;;17.37;43.99;98548.59;10469146;28;20456;-70
2023/10/01 21:13:05;;;;;;;8.85;3.80;;;;;;;17.33;44.26;98557.56;10483135;28;20072;-71
2023/10/01 21:18:29;;;;;;;8.45;3.72;;;;;;;17.29;44.72;98546.09;10497738;28;20441;-71
2023/10/01 21:23:50;;;;;;;7.43;3.10;;;;;;;17.24;44.89;98544.38;10483055;28;20124;-70
2023/10/01 21:29:18;;;;;;;7.15;3.30;;;;;;;17.21;45.08;98542.81;10468953;28;20068;-71
2023/10/01 21:34:44;;;;;;;7.75;3.33;;;;;;;17.19;45.67;98545.53;10497317;28;20394;-71
2023/10/01 21:40:06;;;;;;;6.93;3.15;;;;;;;17.18;45.93;98544.06;10498424;28;20120;-72
2023/10/01 21:45:58;;;;;;;7.97;3.53;;;;;;;17.15;46.42;98543.22;10476998;28;20072;-72
2023/10/01 21:51:19;;;;;;;10.63;3.50;;;;;;;17.16;46.34;98549.59;10481866;28;20454;-71
2023/10/01 21:56:45;;;;;;;7.80;3.20;;;;;;;17.14;46.37;98543.84;10505201;28;20071;-72
2023/10/01 22:02:12;;;;;;;8.82;3.92;;;;;;;17.07;46.76;98534.31;10476022;28;20052;-71
2023/10/01 22:07:33;;;;;;;8.25;3.30;;;;;;;17.07;46.84;98536.38;10476220;28;20037;-70
2023/10/01 22:12:53;;;;;;;7.53;3.25;;;;;;;17.05;46.89;98537.00;10475671;28;20502;-72
2023/10/01 22:18:22;;;;;;;9.57;4.13;;;;;;;17.03;47.14;98539.00;10475372;28;20143;-72
2023/10/01 22:23:43;;;;;;;7.72;3.60;;;;;;;16.98;47.14;98540.13;10477662;28;20109;-71
2023/10/01 22:29:05;;;;;;;8.35;3.70;;;;;;;16.93;47.45;98538.44;10488877;28;20074;-71
2023/10/01 22:34:28;;;;;;;8.80;3.65;;;;;;;16.90;47.50;98531.25;10475086;28;20048;-71
2023/10/01 22:39:50;;;;;;;7.68;3.50;;;;;;;16.84;47.76;98528.81;10475465;28;20102;-70
2023/10/01 22:45:37;;;;;;;7.55;3.63;;;;;;;16.75;47.95;98533.25;10503290;28;20439;-72
2023/10/01 22:51:01;;;;;;;7.85;3.40;;;;;;;16.67;48.23;98527.13;10491990;28;20474;-71
2023/10/01 22:56:22;;;;;;;;;;;;;;;16.60;49.25;98531.72;10488767;28;20045;-71
2023/10/01 23:01:55;;;;;;;8.27;3.67;;;;;;;16.54;48.52;98527.81;10473444;28;20334;-71
2023/10/01 23:07:16;;;;;;;;;;;;;;;16.49;48.98;98528.91;10489390;28;20478;-71
2023/10/01 23:12:40;;;;;;;7.70;3.63;;;;;;;16.44;49.12;98535.69;10487327;28;20374;-71
2023/10/01 23:18:01;;;;;;;9.43;3.80;;;;;;;16.37;49.47;98537.41;10502756;28;20472;-71
2023/10/01 23:23:29;;;;;;;7.78;3.53;;;;;;;16.37;49.32;98525.41;10501858;28;20124;-71
2023/10/01 23:34:34;;;;;;;9.35;3.58;;;;;;;16.35;49.77;98526.03;10501630;28;20064;-71
2023/10/01 23:40:01;;;;;;;6.95;3.35;;;;;;;16.34;49.51;98526.66;10501208;28;20099;-71
2023/10/01 23:45:24;;;;;;;7.32;3.50;;;;;;;16.34;49.92;98523.84;10487164;28;20044;-71
2023/10/01 23:50:46;;;;;;;;;;;;;;;16.33;50.80;98530.81;10486776;28;20502;-71
2023/10/01 23:56:13;;;;;;;11.73;3.80;;;;;;;16.29;50.05;98523.59;10501541;28;19967;-71
